Metar z pełnej godziny Komunikat METAR ze strony awiacja.imgw.pl Metar G00 EPRA METAR EPRA 240500Z 17011KT 7000 BKN033 M04/M05 Q1025=